createdAt,value
2018-12-17T00:01:58.943Z,74.43
2018-12-17T00:04:02.266Z,73.47
2018-12-17T00:06:05.935Z,66.63
2018-12-17T00:08:09.107Z,70.03
2018-12-17T00:10:12.043Z,88.45
2018-12-17T00:12:16.652Z,65.55
2018-12-17T00:14:18.619Z,60.47
2018-12-17T00:16:21.506Z,66.85
2018-12-17T00:18:25.201Z,60.53
2018-12-17T00:20:28.305Z,59.67
2018-12-17T00:22:31.270Z,59.05
2018-12-17T00:24:35.682Z,69.40
2018-12-17T00:26:38.667Z,75.22
2018-12-17T00:28:41.548Z,64.28
2018-12-17T00:30:45.971Z,82.88
2018-12-17T00:32:49.647Z,66.20
2018-12-17T00:34:52.551Z,78.72
2018-12-17T00:36:56.259Z,85.50
2018-12-17T00:39:00.355Z,91.85
2018-12-17T00:41:04.551Z,77.30
2018-12-17T00:43:07.440Z,75.03
2018-12-17T00:45:10.386Z,55.20
2018-12-17T00:47:13.895Z,76.70
2018-12-17T00:49:16.783Z,69.82
2018-12-17T00:51:19.678Z,79.45
2018-12-17T00:53:22.667Z,75.47
2018-12-17T00:55:27.085Z,89.07
2018-12-17T00:57:29.970Z,90.15
2018-12-17T00:59:34.007Z,83.03
2018-12-17T01:01:37.664Z,74.80
2018-12-17T01:03:40.607Z,87.22
2018-12-17T01:05:43.541Z,101.70
2018-12-17T01:07:47.236Z,68.57
2018-12-17T01:09:50.273Z,108.25
2018-12-17T01:11:53.203Z,73.62
2018-12-17T01:13:56.200Z,75.65
2018-12-17T01:15:59.867Z,90.62
2018-12-17T01:18:02.884Z,72.15
2018-12-17T01:20:05.811Z,84.18
2018-12-17T01:22:09.379Z,102.72
2018-12-17T01:24:13.026Z,72.62
2018-12-17T01:26:15.931Z,82.78
2018-12-17T01:28:22.173Z,61.50
2018-12-17T01:30:22.502Z,62.57
2018-12-17T01:32:25.501Z,70.68
2018-12-17T01:34:28.379Z,74.03
2018-12-17T01:36:32.052Z,67.80
2018-12-17T01:38:34.975Z,76.37
2018-12-17T01:40:38.655Z,75.00
2018-12-17T01:42:41.533Z,67.13
2018-12-17T01:44:44.698Z,68.70
2018-12-17T01:46:47.703Z,76.72
2018-12-17T01:48:50.586Z,66.70
2018-12-17T01:50:54.999Z,72.53
2018-12-17T01:52:59.403Z,81.00
2018-12-17T01:55:02.383Z,69.22
2018-12-17T01:57:05.307Z,80.32
2018-12-17T01:59:08.970Z,78.82
2018-12-17T02:01:12.051Z,67.55
2018-12-17T02:03:14.930Z,74.00
2018-12-17T02:05:17.855Z,75.60
2018-12-17T02:07:21.523Z,86.12
2018-12-17T02:09:24.419Z,72.28
2018-12-17T02:11:27.399Z,69.30
2018-12-17T02:13:31.051Z,66.15
2018-12-17T02:15:34.056Z,67.25
2018-12-17T02:17:36.959Z,88.37
2018-12-17T02:19:40.635Z,69.22
2018-12-17T02:21:43.654Z,83.37
2018-12-17T02:23:46.526Z,74.10
2018-12-17T02:25:49.475Z,65.07
2018-12-17T02:27:52.683Z,72.90
2018-12-17T02:29:55.742Z,77.72
2018-12-17T02:31:59.322Z,79.43
2018-12-17T02:34:02.247Z,72.10
2018-12-17T02:36:05.174Z,69.55
2018-12-17T02:38:08.082Z,66.28
2018-12-17T02:40:10.961Z,83.53
2018-12-17T02:42:14.390Z,64.50
2018-12-17T02:44:17.279Z,66.22
2018-12-17T02:46:21.049Z,70.97
2018-12-17T02:48:23.988Z,73.12
2018-12-17T02:50:27.623Z,71.12
2018-12-17T02:52:31.039Z,65.53
2018-12-17T02:54:33.915Z,64.60
2018-12-17T02:56:36.838Z,56.97
2018-12-17T02:58:44.002Z,54.40
2018-12-17T03:00:44.983Z,58.10
2018-12-17T03:02:47.816Z,53.58
2018-12-17T03:04:50.706Z,59.35
2018-12-17T03:06:54.391Z,56.93
2018-12-17T03:08:58.087Z,84.87
2018-12-17T03:11:01.000Z,39.70
2018-12-17T03:13:04.003Z,49.10
2018-12-17T03:15:07.937Z,52.55
2018-12-17T03:17:10.969Z,60.35
2018-12-17T03:19:14.631Z,46.47
2018-12-17T03:21:18.382Z,47.70
2018-12-17T03:23:22.051Z,44.28
2018-12-17T03:25:26.390Z,43.92
2018-12-17T03:27:29.295Z,47.90
2018-12-17T03:29:32.172Z,47.62
2018-12-17T03:31:35.074Z,48.83
2018-12-17T03:33:38.084Z,47.22
2018-12-17T03:35:40.991Z,63.23
2018-12-17T03:37:43.888Z,50.53
2018-12-17T03:39:46.774Z,44.30
2018-12-17T03:41:49.663Z,48.05
2018-12-17T03:43:52.635Z,52.03
2018-12-17T03:45:55.545Z,45.15
2018-12-17T03:47:58.447Z,53.13
2018-12-17T03:50:01.328Z,44.22
2018-12-17T03:52:04.207Z,39.80
2018-12-17T03:54:07.111Z,39.47
2018-12-17T03:56:10.074Z,44.10
2018-12-17T03:58:12.994Z,49.33
2018-12-17T04:00:16.035Z,38.65
2018-12-17T04:02:19.448Z,37.05
2018-12-17T04:04:23.120Z,41.80
2018-12-17T04:06:25.996Z,40.35
2018-12-17T04:08:28.899Z,37.58
2018-12-17T04:10:33.072Z,48.20
2018-12-17T04:12:35.951Z,41.80
2018-12-17T04:14:38.871Z,44.22
2018-12-17T04:16:43.072Z,43.35
2018-12-17T04:18:46.069Z,43.30
2018-12-17T04:20:48.963Z,44.25
2018-12-17T04:22:52.615Z,45.78
2018-12-17T04:24:55.527Z,44.92
2018-12-17T04:26:59.187Z,46.60
2018-12-17T04:29:06.812Z,42.83
2018-12-17T04:31:05.883Z,43.93
2018-12-17T04:33:08.763Z,44.25
2018-12-17T04:35:12.486Z,39.13
2018-12-17T04:37:15.402Z,48.20
2018-12-17T04:39:19.903Z,45.90
2018-12-17T04:41:23.555Z,44.67
2018-12-17T04:43:26.446Z,41.70
2018-12-17T04:45:29.346Z,55.65
2018-12-17T04:47:34.616Z,48.20
2018-12-17T04:49:38.262Z,52.75
2018-12-17T04:51:41.147Z,52.47
2018-12-17T04:53:44.049Z,43.28
2018-12-17T04:55:47.726Z,48.55
2018-12-17T04:57:50.607Z,52.42
2018-12-17T04:59:53.513Z,49.53
2018-12-17T05:01:57.710Z,53.38
2018-12-17T05:04:00.620Z,72.45
2018-12-17T05:06:04.400Z,42.62
2018-12-17T05:08:07.292Z,58.38
2018-12-17T05:10:10.988Z,53.67
2018-12-17T05:12:15.574Z,56.57
2018-12-17T05:14:18.508Z,56.23
2018-12-17T05:16:21.439Z,51.85
2018-12-17T05:18:24.340Z,45.50
2018-12-17T05:20:27.331Z,52.15
2018-12-17T05:22:31.719Z,51.75
2018-12-17T05:24:35.039Z,48.33
2018-12-17T05:26:37.949Z,47.20
2018-12-17T05:28:40.815Z,46.78
2018-12-17T05:30:44.503Z,56.65
2018-12-17T05:32:47.587Z,53.03
2018-12-17T05:34:50.500Z,52.15
2018-12-17T05:36:53.448Z,46.30
2018-12-17T05:38:57.112Z,56.95
2018-12-17T05:41:00.019Z,50.88
2018-12-17T05:43:02.913Z,41.60
2018-12-17T05:45:07.403Z,40.58
2018-12-17T05:47:10.744Z,47.38
2018-12-17T05:49:13.707Z,39.83
2018-12-17T05:51:17.389Z,44.88
2018-12-17T05:53:20.283Z,48.28
2018-12-17T05:55:24.681Z,48.58
2018-12-17T05:57:27.581Z,45.28
2018-12-17T05:59:30.490Z,39.97
2018-12-17T06:01:34.166Z,46.70
2018-12-17T06:03:37.840Z,47.23
2018-12-17T06:05:41.020Z,49.47
2018-12-17T06:07:44.603Z,38.13
2018-12-17T06:09:47.499Z,44.60
2018-12-17T06:11:50.419Z,50.95
2018-12-17T06:13:54.146Z,52.75
2018-12-17T06:15:56.983Z,42.70
2018-12-17T06:17:59.917Z,53.97
2018-12-17T06:20:02.807Z,42.85
2018-12-17T06:22:05.748Z,41.72
2018-12-17T06:24:10.030Z,37.65
2018-12-17T06:26:12.936Z,50.33
2018-12-17T06:28:16.716Z,44.38
2018-12-17T06:30:19.637Z,49.55
2018-12-17T06:32:23.305Z,40.28
2018-12-17T06:34:26.305Z,37.05
2018-12-17T06:36:29.315Z,39.25
2018-12-17T06:38:33.806Z,29.35
2018-12-17T06:40:37.675Z,39.47
2018-12-17T06:42:40.605Z,35.38
2018-12-17T06:44:44.971Z,41.60
2018-12-17T06:46:48.491Z,30.20
2018-12-17T06:48:51.471Z,43.57
2018-12-17T06:50:54.385Z,35.10
2018-12-17T06:52:58.079Z,36.00
2018-12-17T06:55:00.938Z,30.90
2018-12-17T06:57:03.919Z,37.70
2018-12-17T06:59:07.578Z,34.13
2018-12-17T07:01:10.510Z,39.03
2018-12-17T07:03:14.170Z,40.50
2018-12-17T07:05:17.047Z,45.27
2018-12-17T07:07:20.794Z,36.13
2018-12-17T07:09:23.795Z,40.60
2018-12-17T07:11:27.468Z,33.25
2018-12-17T07:13:31.138Z,36.80
2018-12-17T07:15:34.023Z,37.28
2018-12-17T07:17:37.056Z,31.55
2018-12-17T07:19:40.706Z,32.33
2018-12-17T07:21:44.422Z,35.97
2018-12-17T07:23:48.812Z,33.42
2018-12-17T07:25:51.700Z,39.90
2018-12-17T07:27:54.700Z,29.50
2018-12-17T07:29:57.590Z,46.87
2018-12-17T07:32:01.289Z,33.63
2018-12-17T07:34:05.684Z,36.60
2018-12-17T07:36:08.579Z,46.50
2018-12-17T07:38:11.570Z,38.03
2018-12-17T07:40:15.250Z,38.08
2018-12-17T07:42:18.653Z,39.38
2018-12-17T07:44:21.682Z,49.53
2018-12-17T07:46:24.629Z,55.53
2018-12-17T07:48:27.579Z,54.50
2018-12-17T07:50:31.236Z,42.95
2018-12-17T07:52:34.890Z,55.25
2018-12-17T07:54:37.771Z,58.08
2018-12-17T07:56:40.663Z,56.55
2018-12-17T07:58:44.343Z,55.42
2018-12-17T08:00:47.352Z,59.33
2018-12-17T08:02:51.223Z,58.05
2018-12-17T08:04:54.115Z,69.05
2018-12-17T08:06:57.009Z,60.88
2018-12-17T08:08:59.920Z,62.67
2018-12-17T08:11:03.583Z,62.97
2018-12-17T08:13:06.527Z,54.97
2018-12-17T08:15:09.471Z,52.40
2018-12-17T08:17:12.557Z,43.33
2018-12-17T08:19:16.257Z,43.97
2018-12-17T08:21:19.947Z,53.45
2018-12-17T08:23:23.643Z,58.47
2018-12-17T08:25:26.534Z,59.15
2018-12-17T08:27:29.414Z,59.63
2018-12-17T08:29:32.379Z,51.85
2018-12-17T08:31:35.271Z,50.63
2018-12-17T08:33:38.296Z,59.05
2018-12-17T08:35:41.187Z,52.58
2018-12-17T08:37:44.116Z,48.58
2018-12-17T08:39:47.808Z,57.33
2018-12-17T08:41:50.707Z,53.00
2018-12-17T08:43:54.817Z,59.22
2018-12-17T08:45:59.116Z,47.00
2018-12-17T08:48:02.003Z,48.50
2018-12-17T08:50:04.893Z,57.90
2018-12-17T08:52:10.011Z,52.90
2018-12-17T08:54:12.928Z,47.17
2018-12-17T08:56:16.591Z,49.67
2018-12-17T08:58:21.050Z,42.13
2018-12-17T09:00:23.959Z,38.00
2018-12-17T09:02:26.925Z,29.30
2018-12-17T09:04:29.849Z,37.83
2018-12-17T09:06:32.737Z,41.40
2018-12-17T09:08:35.638Z,49.30
2018-12-17T09:10:38.596Z,49.53
2018-12-17T09:12:41.486Z,55.87
2018-12-17T09:14:44.384Z,52.88
2018-12-17T09:16:48.030Z,53.13
2018-12-17T09:18:50.944Z,56.42
2018-12-17T09:20:53.962Z,54.00
2018-12-17T09:22:57.648Z,43.72
2018-12-17T09:25:01.335Z,51.40
2018-12-17T09:27:05.042Z,47.90
2018-12-17T09:29:09.257Z,35.90
2018-12-17T09:31:12.921Z,34.35
2018-12-17T09:33:15.804Z,58.17
2018-12-17T09:35:18.799Z,48.92
2018-12-17T09:37:21.700Z,41.75
2018-12-17T09:39:24.676Z,45.85
2018-12-17T09:41:28.378Z,33.53
2018-12-17T09:43:31.254Z,32.70
2018-12-17T09:45:35.390Z,38.22
2018-12-17T09:47:39.044Z,30.58
2018-12-17T09:49:41.951Z,24.13
2018-12-17T09:51:45.604Z,35.50
2018-12-17T09:53:49.135Z,25.30
2018-12-17T09:55:52.115Z,19.13
2018-12-17T09:57:55.131Z,22.40
2018-12-17T09:59:58.114Z,25.87
2018-12-17T10:02:02.480Z,28.40
2018-12-17T10:04:05.331Z,23.58
2018-12-17T10:06:08.234Z,25.33
2018-12-17T10:08:11.825Z,23.05
2018-12-17T10:10:14.719Z,18.10
2018-12-17T10:12:17.608Z,21.37
2018-12-17T10:14:20.584Z,17.65
2018-12-17T10:16:23.483Z,19.67
2018-12-17T10:18:27.130Z,19.45
2018-12-17T10:20:30.048Z,18.63
2018-12-17T10:22:32.957Z,19.67
2018-12-17T10:24:36.628Z,15.35
2018-12-17T10:26:39.555Z,16.42
2018-12-17T10:28:43.204Z,16.33
2018-12-17T10:30:46.132Z,13.60
2018-12-17T10:32:49.775Z,16.20
2018-12-17T10:34:52.789Z,16.60
2018-12-17T10:36:57.211Z,16.77
2018-12-17T10:39:00.084Z,14.30
2018-12-17T10:41:03.043Z,16.20
2018-12-17T10:43:05.928Z,12.47
2018-12-17T10:45:08.832Z,12.48
2018-12-17T10:47:11.716Z,13.75
2018-12-17T10:49:15.434Z,15.02
2018-12-17T10:51:19.416Z,13.38
2018-12-17T10:53:22.328Z,14.48
2018-12-17T10:55:26.002Z,13.10
2018-12-17T10:57:28.871Z,11.77
2018-12-17T10:59:31.772Z,12.55
2018-12-17T11:01:40.388Z,12.43
2018-12-17T11:03:44.769Z,12.25
2018-12-17T11:05:47.680Z,12.13
2018-12-17T11:07:50.669Z,10.70
2018-12-17T11:09:54.312Z,10.20
2018-12-17T11:11:57.199Z,8.97
2018-12-17T11:14:00.465Z,11.85
2018-12-17T11:16:03.371Z,10.63
2018-12-17T11:18:06.776Z,17.30
2018-12-17T11:20:09.661Z,11.30
2018-12-17T11:22:13.968Z,10.77
2018-12-17T11:24:17.074Z,11.90
2018-12-17T11:26:19.972Z,12.75
2018-12-17T11:28:23.976Z,13.40
2018-12-17T11:30:27.628Z,14.35
2018-12-17T11:32:30.555Z,16.02
2018-12-17T11:34:33.435Z,16.25
2018-12-17T11:36:37.915Z,14.75
2018-12-17T11:38:41.455Z,12.13
2018-12-17T11:40:45.114Z,12.45
2018-12-17T11:42:48.024Z,19.15
2018-12-17T11:44:50.903Z,16.40
2018-12-17T11:46:55.331Z,15.93
2018-12-17T11:48:58.986Z,15.18
2018-12-17T11:51:01.867Z,14.25
2018-12-17T11:53:04.982Z,18.75
2018-12-17T11:55:07.849Z,14.13
2018-12-17T11:57:33.351Z,16.83
2018-12-17T11:59:36.232Z,20.77
2018-12-17T12:01:39.136Z,14.70
2018-12-17T12:03:42.154Z,23.80
2018-12-17T12:05:45.789Z,18.50
2018-12-17T12:07:48.685Z,22.40
2018-12-17T12:09:51.594Z,16.10
2018-12-17T12:11:55.251Z,18.65
2018-12-17T12:13:58.135Z,19.20
2018-12-17T12:16:01.025Z,19.97
2018-12-17T12:18:03.920Z,17.70
2018-12-17T12:20:06.820Z,13.90
2018-12-17T12:22:09.721Z,21.12
2018-12-17T12:24:12.631Z,18.52
2018-12-17T12:26:16.675Z,19.33
2018-12-17T12:28:19.559Z,24.37
2018-12-17T12:30:23.212Z,20.30
2018-12-17T12:32:26.126Z,22.37
2018-12-17T12:34:29.031Z,20.25
2018-12-17T12:36:33.007Z,20.70
2018-12-17T12:38:35.904Z,20.90
2018-12-17T12:40:38.820Z,26.12
2018-12-17T12:42:41.978Z,20.55
2018-12-17T12:44:44.958Z,24.35
2018-12-17T12:46:47.856Z,24.50
2018-12-17T12:48:50.776Z,20.55
2018-12-17T12:50:54.691Z,23.02
2018-12-17T12:52:57.911Z,25.10
2018-12-17T12:55:00.794Z,23.92
2018-12-17T12:57:03.871Z,18.98
2018-12-17T12:59:07.462Z,23.45
2018-12-17T13:01:10.592Z,26.27
2018-12-17T13:03:14.254Z,23.87
2018-12-17T13:05:17.248Z,19.45
2018-12-17T13:07:20.971Z,26.12
2018-12-17T13:09:24.187Z,25.75
2018-12-17T13:11:27.438Z,22.65
2018-12-17T13:13:31.103Z,25.05
2018-12-17T13:15:34.011Z,28.85
2018-12-17T13:17:36.890Z,25.17
2018-12-17T13:19:40.603Z,23.30
2018-12-17T13:21:44.262Z,25.17
2018-12-17T13:23:47.271Z,25.67
2018-12-17T13:25:50.755Z,22.65
2018-12-17T13:27:55.047Z,27.20
2018-12-17T13:29:58.807Z,26.10
2018-12-17T13:32:03.063Z,27.37
2018-12-17T13:34:06.151Z,27.20
2018-12-17T13:36:09.063Z,28.92
2018-12-17T13:38:12.070Z,25.88
2018-12-17T13:40:15.732Z,29.00
2018-12-17T13:42:18.753Z,20.92
2018-12-17T13:44:22.399Z,22.85
2018-12-17T13:46:25.300Z,23.65
2018-12-17T13:48:28.387Z,25.85
2018-12-17T13:50:33.260Z,25.40
2018-12-17T13:52:51.499Z,37.92
2018-12-17T13:54:54.419Z,24.40
2018-12-17T13:56:58.136Z,22.40
2018-12-17T13:59:01.322Z,26.50
2018-12-17T14:01:04.212Z,29.10
2018-12-17T14:03:07.938Z,33.22
2018-12-17T14:05:11.389Z,17.42
2018-12-17T14:07:14.387Z,19.33
2018-12-17T14:09:17.263Z,28.90
2018-12-17T14:11:20.224Z,20.85
2018-12-17T14:13:23.093Z,19.10
2018-12-17T14:15:26.088Z,30.23
2018-12-17T14:17:35.637Z,24.50
2018-12-17T14:19:38.647Z,17.77
2018-12-17T14:21:47.311Z,17.12
2018-12-17T14:23:50.249Z,19.58
2018-12-17T14:25:53.928Z,17.73
2018-12-17T14:27:56.820Z,20.00
2018-12-17T14:29:59.705Z,19.87
2018-12-17T14:32:03.343Z,17.50
2018-12-17T14:34:06.224Z,18.67
2018-12-17T14:36:09.116Z,21.30
2018-12-17T14:38:12.859Z,21.95
2018-12-17T14:40:16.531Z,24.60
2018-12-17T14:42:19.419Z,22.35
2018-12-17T14:44:28.079Z,20.42
2018-12-17T14:46:30.989Z,20.92
2018-12-17T14:48:33.895Z,27.65
2018-12-17T14:50:36.792Z,21.02
2018-12-17T14:52:39.688Z,22.83
2018-12-17T14:54:43.356Z,24.20
2018-12-17T14:56:46.342Z,23.77
2018-12-17T14:58:49.222Z,22.15
2018-12-17T15:00:52.143Z,22.00
2018-12-17T15:02:55.819Z,22.97
2018-12-17T15:04:58.701Z,26.45
2018-12-17T15:07:02.381Z,44.70
2018-12-17T15:09:05.327Z,38.67
2018-12-17T15:11:08.241Z,38.15
2018-12-17T15:13:11.174Z,28.57
2018-12-17T15:15:14.832Z,32.33
2018-12-17T15:17:18.259Z,30.30
2018-12-17T15:19:21.250Z,32.58
2018-12-17T15:21:24.975Z,27.35
2018-12-17T15:23:27.909Z,27.45
2018-12-17T15:25:31.614Z,20.08
2018-12-17T15:27:35.285Z,18.25
2018-12-17T15:29:38.178Z,21.80
2018-12-17T15:31:43.254Z,20.33
2018-12-17T15:33:44.824Z,22.73
2018-12-17T15:35:47.833Z,21.90
2018-12-17T15:37:50.828Z,16.20
2018-12-17T15:39:53.742Z,17.30
2018-12-17T15:41:56.665Z,18.92
2018-12-17T15:43:59.532Z,16.73
2018-12-17T15:46:02.415Z,27.40
2018-12-17T15:48:05.320Z,19.60
2018-12-17T15:50:08.214Z,20.27
2018-12-17T15:52:11.124Z,16.42
2018-12-17T15:54:14.771Z,26.15
2018-12-17T15:56:17.656Z,16.40
2018-12-17T15:58:20.576Z,18.15
2018-12-17T16:00:24.230Z,16.03
2018-12-17T16:02:27.141Z,13.83
2018-12-17T16:04:30.003Z,13.83
2018-12-17T16:06:32.930Z,16.47
2018-12-17T16:08:35.863Z,17.10
2018-12-17T16:10:38.734Z,18.50
2018-12-17T16:12:41.631Z,16.23
2018-12-17T16:14:44.533Z,11.88
2018-12-17T16:16:47.590Z,17.25
2018-12-17T16:18:50.475Z,13.20
2018-12-17T16:20:53.365Z,17.77
2018-12-17T16:22:57.260Z,14.20
2018-12-17T16:25:00.127Z,15.05
2018-12-17T16:27:03.059Z,17.92
2018-12-17T16:29:05.932Z,11.10
2018-12-17T16:31:09.587Z,14.20
2018-12-17T16:33:12.495Z,14.77
2018-12-17T16:35:15.378Z,15.20
2018-12-17T16:37:18.303Z,12.20
2018-12-17T16:39:21.959Z,12.13
2018-12-17T16:41:24.843Z,16.52
2018-12-17T16:43:28.511Z,13.50
2018-12-17T16:45:31.392Z,14.57
2018-12-17T16:47:34.330Z,16.35
2018-12-17T16:49:37.315Z,14.63
2018-12-17T16:51:40.948Z,11.00
2018-12-17T16:53:43.851Z,12.88
2018-12-17T16:55:46.732Z,15.35
2018-12-17T16:57:49.631Z,13.85
2018-12-17T16:59:53.306Z,11.27
2018-12-17T17:01:56.239Z,12.88
2018-12-17T17:03:59.901Z,13.62
2018-12-17T17:06:02.783Z,15.30
2018-12-17T17:08:05.802Z,16.65
2018-12-17T17:10:08.719Z,11.95
2018-12-17T17:12:11.599Z,12.23
2018-12-17T17:14:14.518Z,10.43
2018-12-17T17:16:17.442Z,19.40
2018-12-17T17:18:20.399Z,21.62
2018-12-17T17:20:24.059Z,17.73
2018-12-17T17:22:26.935Z,16.12
2018-12-17T17:24:29.850Z,17.80
2018-12-17T17:26:33.503Z,12.07
2018-12-17T17:28:36.424Z,12.00
2018-12-17T17:30:39.324Z,17.50
2018-12-17T17:32:42.191Z,16.60
2018-12-17T17:34:45.085Z,14.10
2018-12-17T17:36:48.888Z,19.23
2018-12-17T17:38:51.791Z,14.70
2018-12-17T17:40:54.715Z,15.40
2018-12-17T17:42:57.604Z,14.70
2018-12-17T17:45:00.503Z,13.37
2018-12-17T17:47:04.151Z,16.60
2018-12-17T17:49:07.380Z,16.03
2018-12-17T17:51:10.288Z,12.80
2018-12-17T17:53:13.962Z,13.03
2018-12-17T17:55:16.859Z,14.80
2018-12-17T17:57:20.518Z,14.00
2018-12-17T17:59:23.416Z,17.33
2018-12-17T18:01:26.335Z,14.17
2018-12-17T18:03:29.976Z,13.53
2018-12-17T18:05:32.885Z,19.93
2018-12-17T18:07:35.759Z,26.60
2018-12-17T18:09:38.762Z,13.18
2018-12-17T18:11:42.410Z,17.20
2018-12-17T18:13:45.300Z,15.73
2018-12-17T18:15:48.202Z,15.13
2018-12-17T18:17:51.087Z,19.75
2018-12-17T18:19:54.068Z,18.23
2018-12-17T18:21:57.730Z,17.60
2018-12-17T18:24:00.714Z,40.20
2018-12-17T18:26:03.593Z,15.38
2018-12-17T18:28:06.494Z,13.82
2018-12-17T18:30:09.386Z,12.93
2018-12-17T18:32:13.155Z,13.10
2018-12-17T18:34:16.135Z,14.15
2018-12-17T18:36:19.036Z,14.68
2018-12-17T18:38:21.962Z,16.25
2018-12-17T18:40:24.880Z,18.70
2018-12-17T18:42:27.768Z,15.10
2018-12-17T18:44:30.681Z,16.75
2018-12-17T18:46:33.543Z,20.55
2018-12-17T18:48:36.444Z,19.95
2018-12-17T18:50:39.328Z,17.80
2018-12-17T18:52:42.207Z,19.70
2018-12-17T18:54:45.197Z,18.57
2018-12-17T18:56:48.077Z,15.00
2018-12-17T18:58:52.473Z,17.07
2018-12-17T19:00:55.516Z,15.15
2018-12-17T19:02:58.399Z,15.02
2018-12-17T19:05:01.644Z,16.92
2018-12-17T19:07:04.567Z,19.30
2018-12-17T19:09:07.561Z,16.33
2018-12-17T19:11:10.510Z,19.17
2018-12-17T19:13:14.175Z,12.82
2018-12-17T19:15:17.066Z,17.08
2018-12-17T19:17:19.987Z,22.98
2018-12-17T19:19:22.905Z,16.23
2018-12-17T19:21:25.811Z,14.60
2018-12-17T19:23:29.471Z,23.00
2018-12-17T19:25:32.372Z,14.35
2018-12-17T19:27:35.697Z,20.17
2018-12-17T19:29:40.149Z,17.27
2018-12-17T19:31:43.087Z,22.45
2018-12-17T19:33:47.513Z,20.45
2018-12-17T19:35:51.495Z,24.17
2018-12-17T19:37:54.394Z,16.17
2018-12-17T19:39:57.402Z,17.63
2018-12-17T19:42:01.192Z,28.20
2018-12-17T19:44:04.846Z,17.60
2018-12-17T19:46:07.741Z,18.60
2018-12-17T19:48:10.613Z,15.73
2018-12-17T19:50:13.491Z,21.70
2018-12-17T19:52:16.675Z,16.00
2018-12-17T19:54:19.552Z,20.23
2018-12-17T19:56:22.451Z,18.42
2018-12-17T19:58:25.363Z,16.62
2018-12-17T20:00:29.014Z,16.95
2018-12-17T20:02:31.918Z,18.75
2018-12-17T20:04:34.803Z,24.40
2018-12-17T20:06:37.820Z,20.42
2018-12-17T20:08:40.727Z,21.17
2018-12-17T20:10:43.683Z,18.67
2018-12-17T20:12:46.539Z,18.47
2018-12-17T20:14:50.191Z,25.00
2018-12-17T20:16:53.088Z,16.75
2018-12-17T20:18:56.024Z,25.35
2018-12-17T20:21:00.223Z,21.25
2018-12-17T20:23:03.181Z,27.42
2018-12-17T20:25:06.069Z,24.12
2018-12-17T20:27:08.976Z,20.12
2018-12-17T20:29:12.641Z,20.20
2018-12-17T20:31:14.800Z,25.90
2018-12-17T20:33:17.674Z,20.50
2018-12-17T20:35:20.556Z,15.77
2018-12-17T20:37:23.469Z,15.43
2018-12-17T20:39:27.116Z,16.00
2018-12-17T20:41:30.008Z,17.70
2018-12-17T20:43:32.888Z,21.03
2018-12-17T20:45:35.781Z,18.50
2018-12-17T20:47:38.713Z,19.53
2018-12-17T20:49:42.386Z,17.70
2018-12-17T20:51:45.395Z,25.67
2018-12-17T20:53:49.020Z,21.70
2018-12-17T20:55:52.797Z,19.30
2018-12-17T20:57:56.443Z,20.23
2018-12-17T20:59:59.382Z,13.37
2018-12-17T21:02:02.652Z,18.98
2018-12-17T21:04:06.835Z,19.85
2018-12-17T21:06:09.935Z,16.23
2018-12-17T21:08:14.407Z,19.42
2018-12-17T21:10:17.344Z,19.23
2018-12-17T21:12:21.003Z,16.67
2018-12-17T21:14:24.068Z,24.90
2018-12-17T21:16:26.816Z,21.50
2018-12-17T21:18:30.479Z,17.27
2018-12-17T21:20:33.402Z,18.40
2018-12-17T21:22:37.052Z,14.07
2018-12-17T21:24:39.953Z,14.02
2018-12-17T21:26:42.815Z,24.20
2018-12-17T21:28:45.743Z,17.95
2018-12-17T21:30:49.401Z,14.43
2018-12-17T21:32:52.296Z,9.82
2018-12-17T21:34:55.182Z,16.20
2018-12-17T21:36:58.052Z,14.05
2018-12-17T21:39:00.951Z,13.73
2018-12-17T21:41:04.612Z,14.40
2018-12-17T21:43:07.805Z,19.40
2018-12-17T21:45:10.675Z,12.07
2018-12-17T21:47:13.575Z,24.17
2018-12-17T21:49:16.465Z,14.53
2018-12-17T21:51:20.918Z,13.13
2018-12-17T21:53:24.575Z,16.25
2018-12-17T21:55:28.311Z,18.40
2018-12-17T21:57:32.116Z,16.50
2018-12-17T21:59:35.771Z,20.58
2018-12-17T22:01:38.652Z,20.98
2018-12-17T22:03:41.563Z,16.43
2018-12-17T22:05:45.223Z,15.60
2018-12-17T22:07:48.122Z,18.15
2018-12-17T22:09:51.020Z,11.27
2018-12-17T22:11:54.671Z,17.55
2018-12-17T22:13:57.579Z,16.55
2018-12-17T22:16:00.463Z,15.10
2018-12-17T22:18:03.360Z,13.70
2018-12-17T22:20:07.027Z,14.68
2018-12-17T22:22:10.713Z,16.53
2018-12-17T22:24:13.623Z,16.50
2018-12-17T22:26:16.503Z,14.43
2018-12-17T22:28:19.407Z,15.33
2018-12-17T22:30:23.055Z,20.00
2018-12-17T22:32:25.998Z,15.80
2018-12-17T22:34:29.084Z,23.47
2018-12-17T22:36:32.719Z,18.23
2018-12-17T22:38:35.632Z,13.95
2018-12-17T22:40:38.519Z,17.48
2018-12-17T22:42:41.395Z,23.05
2018-12-17T22:44:45.066Z,20.90
2018-12-17T22:46:47.968Z,16.53
2018-12-17T22:48:51.655Z,12.93
2018-12-17T22:50:54.539Z,14.40
2018-12-17T22:52:57.439Z,18.65
2018-12-17T22:55:00.363Z,13.32
2018-12-17T22:57:03.331Z,18.35
2018-12-17T22:59:06.991Z,17.35
2018-12-17T23:01:09.909Z,18.83
2018-12-17T23:03:13.538Z,14.68
2018-12-17T23:05:16.461Z,13.45
2018-12-17T23:07:19.332Z,12.95
2018-12-17T23:09:21.843Z,22.52
2018-12-17T23:11:37.527Z,21.80
2018-12-17T23:13:52.363Z,14.80
2018-12-17T23:16:08.686Z,18.02
2018-12-17T23:18:11.460Z,8.73
2018-12-17T23:20:14.396Z,14.30
2018-12-17T23:22:17.327Z,9.55
2018-12-17T23:24:20.226Z,13.00
2018-12-17T23:26:23.123Z,14.65
2018-12-17T23:28:26.010Z,20.80
2018-12-17T23:30:28.913Z,14.32
2018-12-17T23:32:31.792Z,17.30
2018-12-17T23:34:34.675Z,15.98
2018-12-17T23:36:37.603Z,25.48
2018-12-17T23:38:40.496Z,22.07
2018-12-17T23:40:44.148Z,18.07
2018-12-17T23:42:47.027Z,22.83
2018-12-17T23:44:49.896Z,20.93
2018-12-17T23:46:52.783Z,26.80
2018-12-17T23:48:55.664Z,23.00
2018-12-17T23:50:58.543Z,20.60
2018-12-17T23:53:01.419Z,18.43
2018-12-17T23:55:05.099Z,20.75
2018-12-17T23:57:08.003Z,19.35
2018-12-17T23:59:11.691Z,22.08
